sensor_id;sensor_type;location;lat;lon;timestamp;pressure;altitude;pressure_sealevel;temperature;humidity
79799;BME280;69283;48.024;11.090;2023-05-20T00:00:12;95381.09;;;11.86;76.33
79799;BME280;69283;48.024;11.090;2023-05-20T00:02:38;95371.38;;;11.85;76.21
79799;BME280;69283;48.024;11.090;2023-05-20T00:05:03;95380.63;;;11.84;76.21
79799;BME280;69283;48.024;11.090;2023-05-20T00:07:28;95378.28;;;11.82;76.25
79799;BME280;69283;48.024;11.090;2023-05-20T00:09:54;95377.78;;;11.80;76.79
79799;BME280;69283;48.024;11.090;2023-05-20T00:12:19;95368.88;;;11.80;76.86
79799;BME280;69283;48.024;11.090;2023-05-20T00:14:44;95370.44;;;11.81;77.16
79799;BME280;69283;48.024;11.090;2023-05-20T00:17:10;95372.06;;;11.82;76.91
79799;BME280;69283;48.024;11.090;2023-05-20T00:19:35;95364.22;;;11.80;76.80
79799;BME280;69283;48.024;11.090;2023-05-20T00:22:00;95365.00;;;11.81;77.06
79799;BME280;69283;48.024;11.090;2023-05-20T00:24:26;95357.69;;;11.81;77.03
79799;BME280;69283;48.024;11.090;2023-05-20T00:26:51;95356.56;;;11.82;77.16
79799;BME280;69283;48.024;11.090;2023-05-20T00:29:17;95353.06;;;11.82;77.32
79799;BME280;69283;48.024;11.090;2023-05-20T00:31:42;95351.44;;;11.81;77.86
79799;BME280;69283;48.024;11.090;2023-05-20T00:34:08;95349.19;;;11.83;77.74
79799;BME280;69283;48.024;11.090;2023-05-20T00:36:34;95353.50;;;11.84;78.18
79799;BME280;69283;48.024;11.090;2023-05-20T00:39:00;95349.53;;;11.81;77.95
79799;BME280;69283;48.024;11.090;2023-05-20T00:41:25;95351.00;;;11.79;78.22
79799;BME280;69283;48.024;11.090;2023-05-20T00:43:54;95350.53;;;11.77;78.62
79799;BME280;69283;48.024;11.090;2023-05-20T00:46:21;95360.94;;;11.75;78.41
79799;BME280;69283;48.024;11.090;2023-05-20T00:48:47;95363.88;;;11.70;78.65
79799;BME280;69283;48.024;11.090;2023-05-20T00:51:13;95356.09;;;11.68;78.31
79799;BME280;69283;48.024;11.090;2023-05-20T00:53:40;95351.00;;;11.67;78.48
79799;BME280;69283;48.024;11.090;2023-05-20T00:56:07;95357.66;;;11.69;78.75
79799;BME280;69283;48.024;11.090;2023-05-20T00:58:33;95353.72;;;11.67;78.83
79799;BME280;69283;48.024;11.090;2023-05-20T01:01:00;95345.81;;;11.62;79.09
79799;BME280;69283;48.024;11.090;2023-05-20T01:03:26;95357.13;;;11.64;78.96
79799;BME280;69283;48.024;11.090;2023-05-20T01:05:51;95352.03;;;11.62;78.83
79799;BME280;69283;48.024;11.090;2023-05-20T01:08:17;95352.03;;;11.62;78.75
79799;BME280;69283;48.024;11.090;2023-05-20T01:10:45;95353.63;;;11.63;79.16
79799;BME280;69283;48.024;11.090;2023-05-20T01:13:15;95349.78;;;11.64;78.88
79799;BME280;69283;48.024;11.090;2023-05-20T01:15:42;95346.47;;;11.58;79.20
79799;BME280;69283;48.024;11.090;2023-05-20T01:18:12;95347.41;;;11.63;79.45
79799;BME280;69283;48.024;11.090;2023-05-20T01:20:43;95346.81;;;11.69;79.60
79799;BME280;69283;48.024;11.090;2023-05-20T01:23:11;95342.28;;;11.73;79.21
79799;BME280;69283;48.024;11.090;2023-05-20T01:25:36;95347.16;;;11.68;79.47
79799;BME280;69283;48.024;11.090;2023-05-20T01:28:01;95345.13;;;11.65;79.68
79799;BME280;69283;48.024;11.090;2023-05-20T01:30:29;95329.97;;;11.64;80.11
79799;BME280;69283;48.024;11.090;2023-05-20T01:33:01;95327.47;;;11.58;80.18
79799;BME280;69283;48.024;11.090;2023-05-20T01:35:29;95321.72;;;11.60;80.12
79799;BME280;69283;48.024;11.090;2023-05-20T01:37:54;95315.06;;;11.57;80.79
79799;BME280;69283;48.024;11.090;2023-05-20T01:40:22;95318.56;;;11.58;80.70
79799;BME280;69283;48.024;11.090;2023-05-20T01:42:48;95321.72;;;11.60;81.25
79799;BME280;69283;48.024;11.090;2023-05-20T01:45:17;95318.22;;;11.59;81.41
79799;BME280;69283;48.024;11.090;2023-05-20T01:47:44;95316.28;;;11.60;81.02
79799;BME280;69283;48.024;11.090;2023-05-20T01:50:10;95313.13;;;11.58;81.43
79799;BME280;69283;48.024;11.090;2023-05-20T01:52:35;95315.50;;;11.59;81.13
79799;BME280;69283;48.024;11.090;2023-05-20T01:55:00;95318.69;;;11.62;80.88
79799;BME280;69283;48.024;11.090;2023-05-20T01:57:25;95322.31;;;11.53;81.19
79799;BME280;69283;48.024;11.090;2023-05-20T01:59:51;95315.19;;;11.49;81.42
79799;BME280;69283;48.024;11.090;2023-05-20T02:02:16;95321.22;;;11.42;81.84
79799;BME280;69283;48.024;11.090;2023-05-20T02:04:43;95312.94;;;11.39;82.31
79799;BME280;69283;48.024;11.090;2023-05-20T02:07:12;95312.16;;;11.38;82.67
79799;BME280;69283;48.024;11.090;2023-05-20T02:09:37;95301.97;;;11.35;82.83
79799;BME280;69283;48.024;11.090;2023-05-20T02:12:03;95298.81;;;11.33;82.94
79799;BME280;69283;48.024;11.090;2023-05-20T02:14:28;95292.94;;;11.31;82.70
79799;BME280;69283;48.024;11.090;2023-05-20T02:16:53;95301.19;;;11.35;83.01
79799;BME280;69283;48.024;11.090;2023-05-20T02:19:19;95310.13;;;11.35;82.99
79799;BME280;69283;48.024;11.090;2023-05-20T02:21:48;95306.28;;;11.36;82.71
79799;BME280;69283;48.024;11.090;2023-05-20T02:24:14;95316.44;;;11.39;82.63
79799;BME280;69283;48.024;11.090;2023-05-20T02:26:40;95318.38;;;11.39;82.59
79799;BME280;69283;48.024;11.090;2023-05-20T02:29:06;95325.94;;;11.45;82.36
79799;BME280;69283;48.024;11.090;2023-05-20T02:31:31;95327.09;;;11.44;82.53
79799;BME280;69283;48.024;11.090;2023-05-20T02:33:56;95320.41;;;11.42;82.71
79799;BME280;69283;48.024;11.090;2023-05-20T02:36:22;95319.63;;;11.41;82.52
79799;BME280;69283;48.024;11.090;2023-05-20T02:38:47;95326.38;;;11.47;82.53
79799;BME280;69283;48.024;11.090;2023-05-20T02:41:12;95327.41;;;11.43;82.61
79799;BME280;69283;48.024;11.090;2023-05-20T02:43:37;95323.78;;;11.39;82.56
79799;BME280;69283;48.024;11.090;2023-05-20T02:46:04;95324.38;;;11.44;82.25
79799;BME280;69283;48.024;11.090;2023-05-20T02:48:30;95319.94;;;11.40;82.05
79799;BME280;69283;48.024;11.090;2023-05-20T02:50:55;95324.91;;;11.38;82.50
79799;BME280;69283;48.024;11.090;2023-05-20T02:53:20;95323.44;;;11.40;82.22
79799;BME280;69283;48.024;11.090;2023-05-20T02:55:46;95312.94;;;11.39;82.28
79799;BME280;69283;48.024;11.090;2023-05-20T02:58:12;95316.44;;;11.39;82.34
79799;BME280;69283;48.024;11.090;2023-05-20T03:00:38;95313.63;;;11.36;82.44
79799;BME280;69283;48.024;11.090;2023-05-20T03:03:05;95310.91;;;11.36;82.20
79799;BME280;69283;48.024;11.090;2023-05-20T03:05:32;95320.19;;;11.35;82.70
79799;BME280;69283;48.024;11.090;2023-05-20T03:07:57;95322.09;;;11.34;82.33
79799;BME280;69283;48.024;11.090;2023-05-20T03:10:22;95315.44;;;11.32;82.52
79799;BME280;69283;48.024;11.090;2023-05-20T03:12:48;95315.78;;;11.30;81.98
79799;BME280;69283;48.024;11.090;2023-05-20T03:15:13;95314.84;;;11.38;82.09
79799;BME280;69283;48.024;11.090;2023-05-20T03:17:39;95318.38;;;11.39;81.94
79799;BME280;69283;48.024;11.090;2023-05-20T03:20:05;95304.34;;;11.37;82.13
79799;BME280;69283;48.024;11.090;2023-05-20T03:22:31;95309.22;;;11.31;82.21
79799;BME280;69283;48.024;11.090;2023-05-20T03:24:56;95309.81;;;11.24;82.58
79799;BME280;69283;48.024;11.090;2023-05-20T03:27:22;95316.81;;;11.25;82.66
79799;BME280;69283;48.024;11.090;2023-05-20T03:29:50;95314.56;;;11.27;82.55
79799;BME280;69283;48.024;11.090;2023-05-20T03:32:15;95314.91;;;11.26;82.77
79799;BME280;69283;48.024;11.090;2023-05-20T03:34:40;95321.44;;;11.25;82.42
79799;BME280;69283;48.024;11.090;2023-05-20T03:37:06;95317.16;;;11.24;82.37
79799;BME280;69283;48.024;11.090;2023-05-20T03:39:31;95328.66;;;11.21;82.83
79799;BME280;69283;48.024;11.090;2023-05-20T03:41:57;95327.56;;;11.22;82.73
79799;BME280;69283;48.024;11.090;2023-05-20T03:44:22;95326.78;;;11.21;82.92
79799;BME280;69283;48.024;11.090;2023-05-20T03:46:47;95325.28;;;11.24;82.61
79799;BME280;69283;48.024;11.090;2023-05-20T03:49:13;95322.13;;;11.22;82.65
79799;BME280;69283;48.024;11.090;2023-05-20T03:51:38;95319.09;;;11.23;82.26
79799;BME280;69283;48.024;11.090;2023-05-20T03:54:03;95317.50;;;11.22;82.51
79799;BME280;69283;48.024;11.090;2023-05-20T03:56:28;95310.81;;;11.20;82.76
79799;BME280;69283;48.024;11.090;2023-05-20T03:58:54;95301.78;;;11.16;82.98
79799;BME280;69283;48.024;11.090;2023-05-20T04:01:19;95307.66;;;11.18;82.83
79799;BME280;69283;48.024;11.090;2023-05-20T04:03:45;95308.00;;;11.16;82.87
79799;BME280;69283;48.024;11.090;2023-05-20T04:06:10;95303.34;;;11.17;83.08
79799;BME280;69283;48.024;11.090;2023-05-20T04:08:35;95305.06;;;11.21;82.89
79799;BME280;69283;48.024;11.090;2023-05-20T04:11:01;95298.81;;;11.21;83.14
79799;BME280;69283;48.024;11.090;2023-05-20T04:13:27;95295.66;;;11.19;83.08
79799;BME280;69283;48.024;11.090;2023-05-20T04:15:52;95296.34;;;11.16;83.31
79799;BME280;69283;48.024;11.090;2023-05-20T04:18:18;95299.06;;;11.16;83.18
79799;BME280;69283;48.024;11.090;2023-05-20T04:20:45;95292.06;;;11.15;83.49
79799;BME280;69283;48.024;11.090;2023-05-20T04:23:11;95305.72;;;11.18;83.61
79799;BME280;69283;48.024;11.090;2023-05-20T04:25:36;95302.66;;;11.20;83.31
79799;BME280;69283;48.024;11.090;2023-05-20T04:28:02;95313.22;;;11.21;83.24
79799;BME280;69283;48.024;11.090;2023-05-20T04:30:28;95306.50;;;11.19;83.33
79799;BME280;69283;48.024;11.090;2023-05-20T04:32:54;95307.31;;;11.19;83.41
79799;BME280;69283;48.024;11.090;2023-05-20T04:35:19;95309.69;;;11.21;84.00
79799;BME280;69283;48.024;11.090;2023-05-20T04:37:44;95311.94;;;11.19;83.66
79799;BME280;69283;48.024;11.090;2023-05-20T04:40:12;95315.09;;;11.21;83.98
79799;BME280;69283;48.024;11.090;2023-05-20T04:42:38;95311.28;;;11.22;83.77
79799;BME280;69283;48.024;11.090;2023-05-20T04:45:07;95306.31;;;11.24;83.39
79799;BME280;69283;48.024;11.090;2023-05-20T04:47:32;95305.19;;;11.25;83.26
79799;BME280;69283;48.024;11.090;2023-05-20T04:50:07;95300.66;;;11.29;83.29
79799;BME280;69283;48.024;11.090;2023-05-20T04:52:38;95302.56;;;11.28;83.28
79799;BME280;69283;48.024;11.090;2023-05-20T04:55:05;95302.91;;;11.27;83.14
79799;BME280;69283;48.024;11.090;2023-05-20T04:57:31;95299.41;;;11.26;82.97
79799;BME280;69283;48.024;11.090;2023-05-20T04:59:58;95311.50;;;11.29;83.44
79799;BME280;69283;48.024;11.090;2023-05-20T05:02:24;95306.84;;;11.30;83.07
79799;BME280;69283;48.024;11.090;2023-05-20T05:04:49;95304.94;;;11.30;83.30
79799;BME280;69283;48.024;11.090;2023-05-20T05:07:15;95311.50;;;11.29;83.36
79799;BME280;69283;48.024;11.090;2023-05-20T05:09:40;95303.81;;;11.31;82.91
79799;BME280;69283;48.024;11.090;2023-05-20T05:12:06;95302.91;;;11.27;83.16
79799;BME280;69283;48.024;11.090;2023-05-20T05:14:31;95293.63;;;11.28;83.24
79799;BME280;69283;48.024;11.090;2023-05-20T05:16:56;95296.34;;;11.28;83.43
79799;BME280;69283;48.024;11.090;2023-05-20T05:19:22;95294.53;;;11.32;83.41
79799;BME280;69283;48.024;11.090;2023-05-20T05:21:47;95286.41;;;11.32;83.28
79799;BME280;69283;48.024;11.090;2023-05-20T05:24:12;95288.31;;;11.32;83.57
79799;BME280;69283;48.024;11.090;2023-05-20T05:26:38;95287.28;;;11.36;83.18
79799;BME280;69283;48.024;11.090;2023-05-20T05:29:03;95297.78;;;11.38;83.21
79799;BME280;69283;48.024;11.090;2023-05-20T05:31:28;95293.72;;;11.44;82.65
79799;BME280;69283;48.024;11.090;2023-05-20T05:33:53;95297.91;;;11.41;82.87
79799;BME280;69283;48.024;11.090;2023-05-20T05:36:19;95293.59;;;11.40;82.65
79799;BME280;69283;48.024;11.090;2023-05-20T05:38:44;95306.06;;;11.41;83.30
79799;BME280;69283;48.024;11.090;2023-05-20T05:41:09;95286.25;;;11.41;82.96
79799;BME280;69283;48.024;11.090;2023-05-20T05:43:35;95296.09;;;11.45;83.22
79799;BME280;69283;48.024;11.090;2023-05-20T05:46:00;95295.66;;;11.43;83.37
79799;BME280;69283;48.024;11.090;2023-05-20T05:48:25;95312.72;;;11.44;83.37
79799;BME280;69283;48.024;11.090;2023-05-20T05:50:51;95315.00;;;11.42;83.57
79799;BME280;69283;48.024;11.090;2023-05-20T05:53:17;95305.38;;;11.44;83.68
79799;BME280;69283;48.024;11.090;2023-05-20T05:55:42;95307.63;;;11.42;83.48
79799;BME280;69283;48.024;11.090;2023-05-20T05:58:07;95312.81;;;11.47;83.39
79799;BME280;69283;48.024;11.090;2023-05-20T06:00:33;95309.66;;;11.45;83.61
79799;BME280;69283;48.024;11.090;2023-05-20T06:02:58;95298.81;;;11.45;83.69
79799;BME280;69283;48.024;11.090;2023-05-20T06:05:24;95297.44;;;11.51;83.64
79799;BME280;69283;48.024;11.090;2023-05-20T06:07:49;95300.94;;;11.52;83.39
79799;BME280;69283;48.024;11.090;2023-05-20T06:10:14;95300.25;;;11.55;83.30
79799;BME280;69283;48.024;11.090;2023-05-20T06:12:40;95300.59;;;11.53;83.09
79799;BME280;69283;48.024;11.090;2023-05-20T06:15:06;95307.59;;;11.54;83.19
79799;BME280;69283;48.024;11.090;2023-05-20T06:17:31;95302.63;;;11.56;83.11
79799;BME280;69283;48.024;11.090;2023-05-20T06:19:57;95301.59;;;11.61;82.92
79799;BME280;69283;48.024;11.090;2023-05-20T06:22:22;95302.41;;;11.62;82.68
79799;BME280;69283;48.024;11.090;2023-05-20T06:24:47;95300.78;;;11.61;82.81
79799;BME280;69283;48.024;11.090;2023-05-20T06:27:13;95299.00;;;11.65;82.54
79799;BME280;69283;48.024;11.090;2023-05-20T06:29:38;95299.44;;;11.67;82.70
79799;BME280;69283;48.024;11.090;2023-05-20T06:32:03;95293.06;;;11.75;82.42
79799;BME280;69283;48.024;11.090;2023-05-20T06:34:29;95288.09;;;11.77;82.24
79799;BME280;69283;48.024;11.090;2023-05-20T06:36:55;95295.25;;;11.81;82.21
79799;BME280;69283;48.024;11.090;2023-05-20T06:39:20;95293.59;;;11.93;81.95
79799;BME280;69283;48.024;11.090;2023-05-20T06:41:46;95290.41;;;12.03;81.37
79799;BME280;69283;48.024;11.090;2023-05-20T06:44:11;95289.63;;;12.02;80.68
79799;BME280;69283;48.024;11.090;2023-05-20T06:46:36;95281.00;;;12.00;80.98
79799;BME280;69283;48.024;11.090;2023-05-20T06:49:02;95287.44;;;12.08;80.83
79799;BME280;69283;48.024;11.090;2023-05-20T06:51:27;95284.81;;;12.11;80.68
79799;BME280;69283;48.024;11.090;2023-05-20T06:53:53;95289.09;;;12.12;80.27
79799;BME280;69283;48.024;11.090;2023-05-20T06:56:18;95284.31;;;12.22;80.07
79799;BME280;69283;48.024;11.090;2023-05-20T06:58:43;95285.91;;;12.23;79.37
79799;BME280;69283;48.024;11.090;2023-05-20T07:01:09;95283.84;;;12.19;79.09
79799;BME280;69283;48.024;11.090;2023-05-20T07:03:34;95286.44;;;12.28;79.12
79799;BME280;69283;48.024;11.090;2023-05-20T07:06:00;95276.25;;;12.41;78.90
79799;BME280;69283;48.024;11.090;2023-05-20T07:08:25;95284.41;;;12.41;78.53
79799;BME280;69283;48.024;11.090;2023-05-20T07:10:50;95278.81;;;12.49;77.83
79799;BME280;69283;48.024;11.090;2023-05-20T07:13:16;95270.75;;;12.53;76.99
79799;BME280;69283;48.024;11.090;2023-05-20T07:15:45;95268.91;;;12.57;77.46
79799;BME280;69283;48.024;11.090;2023-05-20T07:18:10;95265.69;;;12.67;77.49
79799;BME280;69283;48.024;11.090;2023-05-20T07:20:35;95271.28;;;12.74;77.43
79799;BME280;69283;48.024;11.090;2023-05-20T07:23:01;95258.22;;;12.80;76.53
79799;BME280;69283;48.024;11.090;2023-05-20T07:25:28;95256.47;;;12.88;76.53
79799;BME280;69283;48.024;11.090;2023-05-20T07:27:53;95256.03;;;13.01;75.56
79799;BME280;69283;48.024;11.090;2023-05-20T07:30:18;95266.06;;;13.17;74.40
79799;BME280;69283;48.024;11.090;2023-05-20T07:32:44;95258.91;;;13.24;74.24
79799;BME280;69283;48.024;11.090;2023-05-20T07:35:09;95261.06;;;13.34;72.98
79799;BME280;69283;48.024;11.090;2023-05-20T07:37:34;95258.22;;;13.47;74.26
79799;BME280;69283;48.024;11.090;2023-05-20T07:40:00;95262.59;;;13.51;72.38
79799;BME280;69283;48.024;11.090;2023-05-20T07:42:25;95265.38;;;13.55;71.76
79799;BME280;69283;48.024;11.090;2023-05-20T07:44:50;95258.66;;;13.49;72.02
79799;BME280;69283;48.024;11.090;2023-05-20T07:47:16;95255.13;;;13.48;72.63
79799;BME280;69283;48.024;11.090;2023-05-20T07:49:41;95251.28;;;13.49;72.45
79799;BME280;69283;48.024;11.090;2023-05-20T07:52:08;95244.03;;;13.57;71.81
79799;BME280;69283;48.024;11.090;2023-05-20T07:54:33;95244.56;;;13.62;72.18
79799;BME280;69283;48.024;11.090;2023-05-20T07:56:59;95237.81;;;13.76;71.52
79799;BME280;69283;48.024;11.090;2023-05-20T07:59:25;95240.53;;;13.95;70.54
79799;BME280;69283;48.024;11.090;2023-05-20T08:01:50;95238.63;;;14.18;70.79
79799;BME280;69283;48.024;11.090;2023-05-20T08:04:15;95243.84;;;14.46;69.65
79799;BME280;69283;48.024;11.090;2023-05-20T08:06:41;95246.16;;;14.44;68.44
79799;BME280;69283;48.024;11.090;2023-05-20T08:09:08;95249.28;;;14.46;69.62
79799;BME280;69283;48.024;11.090;2023-05-20T08:11:34;95239.47;;;14.65;68.94
79799;BME280;69283;48.024;11.090;2023-05-20T08:13:59;95247.78;;;14.98;69.43
79799;BME280;69283;48.024;11.090;2023-05-20T08:16:26;95239.25;;;15.00;67.30
79799;BME280;69283;48.024;11.090;2023-05-20T08:18:51;95243.31;;;15.09;68.14
79799;BME280;69283;48.024;11.090;2023-05-20T08:21:16;95236.97;;;15.02;67.03
79799;BME280;69283;48.024;11.090;2023-05-20T08:23:42;95236.97;;;15.02;67.64
79799;BME280;69283;48.024;11.090;2023-05-20T08:26:07;95249.66;;;15.17;67.35
79799;BME280;69283;48.024;11.090;2023-05-20T08:28:32;95242.88;;;15.34;67.38
79799;BME280;69283;48.024;11.090;2023-05-20T08:31:00;95245.94;;;15.29;66.56
79799;BME280;69283;48.024;11.090;2023-05-20T08:33:25;95245.28;;;15.39;66.81
79799;BME280;69283;48.024;11.090;2023-05-20T08:35:51;95248.41;;;15.41;66.81
79799;BME280;69283;48.024;11.090;2023-05-20T08:38:16;95253.09;;;15.40;65.59
79799;BME280;69283;48.024;11.090;2023-05-20T08:40:42;95245.69;;;15.41;66.16
79799;BME280;69283;48.024;11.090;2023-05-20T08:43:07;95245.38;;;15.46;65.81
79799;BME280;69283;48.024;11.090;2023-05-20T08:45:36;95240.66;;;15.43;65.88
79799;BME280;69283;48.024;11.090;2023-05-20T08:48:02;95245.34;;;15.42;66.64
79799;BME280;69283;48.024;11.090;2023-05-20T08:50:29;95241.13;;;15.48;66.59
79799;BME280;69283;48.024;11.090;2023-05-20T08:52:55;95247.41;;;15.52;65.88
79799;BME280;69283;48.024;11.090;2023-05-20T08:58:05;95238.97;;;15.35;67.06
79799;BME280;69283;48.024;11.090;2023-05-20T09:00:31;95246.06;;;15.39;66.87
79799;BME280;69283;48.024;11.090;2023-05-20T09:02:58;95240.56;;;15.36;66.96
79799;BME280;69283;48.024;11.090;2023-05-20T09:05:24;95235.72;;;15.52;67.27
79799;BME280;69283;48.024;11.090;2023-05-20T09:07:49;95232.66;;;15.57;66.31
79799;BME280;69283;48.024;11.090;2023-05-20T09:10:15;95236.81;;;15.74;66.24
79799;BME280;69283;48.024;11.090;2023-05-20T09:12:40;95235.69;;;15.78;66.18
79799;BME280;69283;48.024;11.090;2023-05-20T09:15:06;95238.94;;;15.88;66.20
79799;BME280;69283;48.024;11.090;2023-05-20T09:17:36;95239.78;;;15.95;65.41
79799;BME280;69283;48.024;11.090;2023-05-20T09:20:06;95236.59;;;15.90;63.89
79799;BME280;69283;48.024;11.090;2023-05-20T09:22:32;95236.28;;;15.95;64.25
79799;BME280;69283;48.024;11.090;2023-05-20T09:24:58;95237.94;;;16.03;63.70
79799;BME280;69283;48.024;11.090;2023-05-20T09:27:23;95237.09;;;15.99;64.23
79799;BME280;69283;48.024;11.090;2023-05-20T09:29:50;95242.94;;;15.97;64.19
79799;BME280;69283;48.024;11.090;2023-05-20T09:32:16;95237.59;;;16.08;64.54
79799;BME280;69283;48.024;11.090;2023-05-20T09:34:42;95238.72;;;16.03;64.17
79799;BME280;69283;48.024;11.090;2023-05-20T09:37:09;95239.72;;;15.88;63.74
79799;BME280;69283;48.024;11.090;2023-05-20T09:39:43;95244.72;;;15.82;65.03
79799;BME280;69283;48.024;11.090;2023-05-20T09:42:19;95247.41;;;15.79;65.41
79799;BME280;69283;48.024;11.090;2023-05-20T09:44:47;95247.50;;;15.86;65.23
79799;BME280;69283;48.024;11.090;2023-05-20T09:47:13;95248.50;;;15.74;64.96
79799;BME280;69283;48.024;11.090;2023-05-20T09:49:40;95248.28;;;15.87;65.29
79799;BME280;69283;48.024;11.090;2023-05-20T09:52:07;95239.44;;;16.00;64.86
79799;BME280;69283;48.024;11.090;2023-05-20T09:54:34;95250.06;;;16.05;64.94
79799;BME280;69283;48.024;11.090;2023-05-20T09:57:01;95234.94;;;16.15;64.81
79799;BME280;69283;48.024;11.090;2023-05-20T09:59:28;95237.75;;;16.22;64.35
79799;BME280;69283;48.024;11.090;2023-05-20T10:01:54;95235.28;;;16.10;64.25
79799;BME280;69283;48.024;11.090;2023-05-20T10:04:20;95234.09;;;16.07;64.05
79799;BME280;69283;48.024;11.090;2023-05-20T10:10:02;95235.09;;;15.96;63.64
79799;BME280;69283;48.024;11.090;2023-05-20T10:12:51;95231.75;;;16.09;63.74
79799;BME280;69283;48.024;11.090;2023-05-20T10:20:46;95216.56;;;16.53;63.04
79799;BME280;69283;48.024;11.090;2023-05-20T10:23:27;95207.75;;;16.70;63.04
79799;BME280;69283;48.024;11.090;2023-05-20T10:25:54;95216.91;;;16.88;61.15
79799;BME280;69283;48.024;11.090;2023-05-20T10:28:31;95222.00;;;16.93;60.31
79799;BME280;69283;48.024;11.090;2023-05-20T10:30:57;95220.50;;;16.99;60.60
79799;BME280;69283;48.024;11.090;2023-05-20T10:33:24;95208.81;;;17.02;58.96
79799;BME280;69283;48.024;11.090;2023-05-20T10:35:50;95205.59;;;16.93;59.46
79799;BME280;69283;48.024;11.090;2023-05-20T10:38:19;95198.53;;;16.89;59.31
79799;BME280;69283;48.024;11.090;2023-05-20T10:40:46;95198.88;;;16.84;59.86
79799;BME280;69283;48.024;11.090;2023-05-20T10:43:13;95196.97;;;16.91;60.35
79799;BME280;69283;48.024;11.090;2023-05-20T10:45:53;95195.91;;;17.07;59.67
79799;BME280;69283;48.024;11.090;2023-05-20T10:48:40;95200.25;;;17.11;59.27
79799;BME280;69283;48.024;11.090;2023-05-20T10:51:12;95195.53;;;17.05;59.25
79799;BME280;69283;48.024;11.090;2023-05-20T10:53:39;95183.06;;;17.14;60.29
79799;BME280;69283;48.024;11.090;2023-05-20T10:56:05;95180.72;;;17.20;58.72
79799;BME280;69283;48.024;11.090;2023-05-20T10:58:38;95184.69;;;17.26;59.14
79799;BME280;69283;48.024;11.090;2023-05-20T11:01:03;95178.88;;;17.42;59.46
79799;BME280;69283;48.024;11.090;2023-05-20T11:03:29;95180.09;;;17.44;59.06
79799;BME280;69283;48.024;11.090;2023-05-20T11:05:55;95173.88;;;17.54;58.62
79799;BME280;69283;48.024;11.090;2023-05-20T11:08:20;95174.72;;;17.62;58.91
79799;BME280;69283;48.024;11.090;2023-05-20T11:10:45;95179.47;;;17.76;57.90
79799;BME280;69283;48.024;11.090;2023-05-20T11:13:12;95167.38;;;17.87;58.09
79799;BME280;69283;48.024;11.090;2023-05-20T11:15:41;95164.66;;;17.98;58.74
79799;BME280;69283;48.024;11.090;2023-05-20T11:18:06;95161.56;;;18.14;57.43
79799;BME280;69283;48.024;11.090;2023-05-20T11:20:31;95159.25;;;18.23;57.72
79799;BME280;69283;48.024;11.090;2023-05-20T11:22:59;95151.03;;;18.34;58.31
79799;BME280;69283;48.024;11.090;2023-05-20T11:25:25;95151.44;;;18.50;57.08
79799;BME280;69283;48.024;11.090;2023-05-20T11:27:52;95152.59;;;18.56;57.05
79799;BME280;69283;48.024;11.090;2023-05-20T11:30:18;95143.59;;;18.59;56.85
79799;BME280;69283;48.024;11.090;2023-05-20T11:35:24;95138.91;;;18.77;56.38
79799;BME280;69283;48.024;11.090;2023-05-20T11:37:59;95138.13;;;18.88;56.77
79799;BME280;69283;48.024;11.090;2023-05-20T11:40:25;95145.16;;;18.99;54.06
79799;BME280;69283;48.024;11.090;2023-05-20T11:42:52;95128.69;;;19.03;54.68
79799;BME280;69283;48.024;11.090;2023-05-20T11:45:18;95134.56;;;19.08;53.34
79799;BME280;69283;48.024;11.090;2023-05-20T11:47:43;95136.09;;;19.20;54.11
79799;BME280;69283;48.024;11.090;2023-05-20T11:50:09;95134.88;;;19.35;52.89
79799;BME280;69283;48.024;11.090;2023-05-20T11:52:34;95121.50;;;19.41;52.68
79799;BME280;69283;48.024;11.090;2023-05-20T11:55:00;95130.53;;;19.41;50.79
79799;BME280;69283;48.024;11.090;2023-05-20T11:57:25;95123.84;;;19.50;49.98
79799;BME280;69283;48.024;11.090;2023-05-20T11:59:50;95120.69;;;19.51;50.84
79799;BME280;69283;48.024;11.090;2023-05-20T12:02:16;95112.41;;;19.69;51.06
79799;BME280;69283;48.024;11.090;2023-05-20T12:04:41;95111.56;;;19.83;50.06
79799;BME280;69283;48.024;11.090;2023-05-20T12:07:06;95110.28;;;19.94;50.86
79799;BME280;69283;48.024;11.090;2023-05-20T12:09:33;95100.84;;;20.02;48.96
79799;BME280;69283;48.024;11.090;2023-05-20T12:11:59;95102.41;;;20.03;49.02
79799;BME280;69283;48.024;11.090;2023-05-20T12:14:24;95099.25;;;20.05;49.34
79799;BME280;69283;48.024;11.090;2023-05-20T12:16:49;95100.78;;;20.10;49.46
79799;BME280;69283;48.024;11.090;2023-05-20T12:19:16;95099.22;;;20.09;48.93
79799;BME280;69283;48.024;11.090;2023-05-20T12:21:41;95102.28;;;20.18;49.15
79799;BME280;69283;48.024;11.090;2023-05-20T12:24:07;95089.28;;;20.25;49.41
79799;BME280;69283;48.024;11.090;2023-05-20T12:26:33;95090.47;;;20.24;49.33
79799;BME280;69283;48.024;11.090;2023-05-20T12:29:00;95095.13;;;20.31;49.98
79799;BME280;69283;48.024;11.090;2023-05-20T12:31:25;95090.75;;;20.44;49.36
79799;BME280;69283;48.024;11.090;2023-05-20T12:33:50;95091.75;;;20.64;49.52
79799;BME280;69283;48.024;11.090;2023-05-20T12:36:16;95092.38;;;20.79;47.32
79799;BME280;69283;48.024;11.090;2023-05-20T12:38:41;95083.38;;;20.75;47.36
79799;BME280;69283;48.024;11.090;2023-05-20T12:41:06;95086.16;;;20.72;48.04
79799;BME280;69283;48.024;11.090;2023-05-20T12:43:32;95083.28;;;20.86;44.46
79799;BME280;69283;48.024;11.090;2023-05-20T12:45:57;95074.53;;;20.94;45.59
79799;BME280;69283;48.024;11.090;2023-05-20T12:48:22;95078.81;;;20.99;44.35
79799;BME280;69283;48.024;11.090;2023-05-20T12:50:48;95074.06;;;21.03;44.35
79799;BME280;69283;48.024;11.090;2023-05-20T12:53:13;95067.56;;;21.20;43.96
79799;BME280;69283;48.024;11.090;2023-05-20T12:55:38;95066.22;;;21.36;42.99
79799;BME280;69283;48.024;11.090;2023-05-20T12:58:04;95055.41;;;21.52;43.36